Time;durP1;ratioP1;P1;durP2;ratioP2;P2;SDS_P1;SDS_P2;PMS_P1;PMS_P2;Temp;Humidity;BMP_temperature;BMP_pressure;BME280_temperature;BME280_humidity;BME280_pressure;Samples;Min_cycle;Max_cycle;Signal;HPM_P1;HPM_P2
2022/05/12 00:01:12;;;;;;;13.65;3.72;;;;;;;8.81;100.00;101510.16;5052395;28;20058;-73
2022/05/12 00:03:37;;;;;;;14.18;2.55;;;;;;;8.82;100.00;101515.34;5070706;28;20044;-73
2022/05/12 00:06:03;;;;;;;14.02;3.08;;;;;;;8.78;100.00;101516.53;5069702;28;20151;-73
2022/05/12 00:08:29;;;;;;;15.20;2.30;;;;;;;8.79;100.00;101517.38;5052720;28;20036;-72
2022/05/12 00:10:54;;;;;;;10.35;2.10;;;;;;;8.77;100.00;101520.13;5070060;28;20043;-72
2022/05/12 00:13:20;;;;;;;10.68;2.72;;;;;;;8.79;100.00;101530.63;5070582;28;20032;-71
2022/05/12 00:15:48;;;;;;;9.80;2.15;;;;;;;8.78;100.00;101521.00;5070421;28;20029;-72
2022/05/12 00:18:14;;;;;;;14.18;2.20;;;;;;;8.73;100.00;101536.38;5052688;28;20037;-72
2022/05/12 00:20:41;;;;;;;9.65;1.95;;;;;;;8.70;100.00;101532.13;5070043;28;20491;-72
2022/05/12 00:23:06;;;;;;;12.07;2.40;;;;;;;8.75;100.00;101539.78;5070145;28;20060;-72
2022/05/12 00:25:32;;;;;;;6.97;1.63;;;;;;;8.74;100.00;101548.69;5070597;28;20106;-71
2022/05/12 00:27:58;;;;;;;7.45;2.17;;;;;;;8.69;100.00;101549.03;5051958;28;20034;-72
2022/05/12 00:30:23;;;;;;;16.20;2.22;;;;;;;8.72;100.00;101559.44;5070550;28;20043;-72
2022/05/12 00:32:48;;;;;;;5.70;2.20;;;;;;;8.69;100.00;101545.50;5070530;28;20032;-72
2022/05/12 00:35:17;;;;;;;8.60;1.98;;;;;;;8.63;100.00;101555.63;5051898;28;20106;-71
2022/05/12 00:37:43;;;;;;;5.90;2.10;;;;;;;8.62;100.00;101548.59;5071965;28;20070;-73
2022/05/12 00:40:09;;;;;;;13.70;2.08;;;;;;;8.62;100.00;101553.06;5055974;28;20131;-74
2022/05/12 00:42:35;;;;;;;15.57;2.47;;;;;;;8.66;100.00;101559.88;5074643;28;20101;-73
2022/05/12 00:45:00;;;;;;;7.32;2.30;;;;;;;8.70;100.00;101566.63;5074186;28;20036;-74
2022/05/12 00:47:26;;;;;;;9.82;2.38;;;;;;;8.71;100.00;101557.72;5074468;28;20032;-74
2022/05/12 00:49:53;;;;;;;10.30;3.45;;;;;;;8.71;100.00;101563.03;5074236;28;20033;-77
2022/05/12 00:52:24;;;;;;;7.88;2.30;;;;;;;8.67;100.00;101558.06;5073743;28;20039;-72
2022/05/12 00:54:57;;;;;;;;;;;;;;;8.65;100.00;101566.13;5074625;28;20025;-72
2022/05/12 00:57:54;;;;;;;10.88;2.38;;;;;;;8.61;100.00;101556.66;5073931;28;19938;-71
2022/05/12 01:00:21;;;;;;;11.15;2.13;;;;;;;8.52;100.00;101555.50;5055785;28;20445;-72
2022/05/12 01:02:49;;;;;;;11.00;2.25;;;;;;;8.46;100.00;101559.47;5055770;28;20345;-72
2022/05/12 01:05:16;;;;;;;10.23;2.42;;;;;;;8.42;100.00;101560.59;5073361;28;20104;-72
2022/05/12 01:07:42;;;;;;;5.90;2.17;;;;;;;8.37;100.00;101573.31;5074036;28;20036;-72
2022/05/12 01:10:09;;;;;;;10.95;2.40;;;;;;;8.33;100.00;101569.22;5073393;28;20040;-72
2022/05/12 01:12:38;;;;;;;11.60;2.80;;;;;;;8.33;100.00;101565.69;5074091;28;20108;-72
2022/05/12 01:15:05;;;;;;;17.25;2.60;;;;;;;8.33;100.00;101566.56;5073300;28;20037;-73
2022/05/12 01:17:30;;;;;;;12.65;2.70;;;;;;;8.38;100.00;101576.84;5073493;28;20032;-72
2022/05/12 01:19:55;;;;;;;16.05;3.00;;;;;;;8.46;100.00;101578.03;5073761;28;20040;-79
2022/05/12 01:22:34;;;;;;;9.88;3.22;;;;;;;8.54;100.00;101573.97;5072397;28;20045;-72
2022/05/12 01:24:59;;;;;;;12.43;3.47;;;;;;;8.59;100.00;101580.66;5071768;28;20111;-74
2022/05/12 01:27:25;;;;;;;6.28;2.92;;;;;;;8.68;100.00;101565.91;5072513;28;20064;-72
2022/05/12 01:29:57;;;;;;;13.77;4.32;;;;;;;8.73;100.00;101584.16;5072355;28;20373;-72
2022/05/12 01:32:26;;;;;;;10.25;3.22;;;;;;;8.76;100.00;101579.47;5072028;28;20082;-72
2022/05/12 01:34:52;;;;;;;13.73;3.65;;;;;;;8.82;100.00;101576.38;5072149;28;20470;-72
2022/05/12 01:37:18;;;;;;;11.32;3.45;;;;;;;8.87;100.00;101581.38;5071909;28;20090;-72
2022/05/12 01:39:44;;;;;;;11.70;3.40;;;;;;;8.87;100.00;101586.66;5072437;28;20032;-72
2022/05/12 01:42:10;;;;;;;11.20;3.85;;;;;;;8.99;100.00;101591.09;5053663;28;20040;-73
2022/05/12 01:44:36;;;;;;;13.63;3.55;;;;;;;9.00;100.00;101595.44;5072454;28;20036;-72
2022/05/12 01:47:02;;;;;;;8.05;3.80;;;;;;;9.07;100.00;101600.31;5071917;28;20380;-79
2022/05/12 01:49:28;;;;;;;7.95;3.60;;;;;;;9.08;100.00;101602.03;5053563;28;20036;-72
2022/05/12 01:51:55;;;;;;;9.13;3.55;;;;;;;9.13;100.00;101597.22;5072327;28;20035;-73
2022/05/12 01:54:21;;;;;;;14.30;3.70;;;;;;;9.14;100.00;101597.09;5071100;28;20467;-78
2022/05/12 01:56:46;;;;;;;8.95;3.65;;;;;;;9.12;100.00;101600.81;5071400;28;20040;-79
2022/05/12 01:59:12;;;;;;;10.32;3.80;;;;;;;9.11;100.00;101599.97;5071225;28;20024;-78
2022/05/12 02:01:37;;;;;;;16.23;3.33;;;;;;;9.14;100.00;101605.06;5053275;28;20124;-79
2022/05/12 02:04:05;;;;;;;17.27;4.07;;;;;;;9.17;100.00;101602.19;5071733;28;20436;-85
2022/05/12 02:06:31;;;;;;;12.10;3.67;;;;;;;9.22;100.00;101604.50;5071571;28;20048;-80
2022/05/12 02:08:57;;;;;;;17.27;3.83;;;;;;;9.23;100.00;101623.97;5053290;28;20056;-79
2022/05/12 02:11:23;;;;;;;12.77;3.40;;;;;;;9.27;100.00;101628.06;5053019;28;20035;-80
2022/05/12 02:13:48;;;;;;;8.57;3.20;;;;;;;9.28;100.00;101633.25;5071458;28;20032;-80
2022/05/12 02:16:13;;;;;;;9.60;3.35;;;;;;;9.28;100.00;101633.25;5071297;28;20059;-80
2022/05/12 02:18:39;;;;;;;11.23;3.70;;;;;;;9.24;100.00;101629.16;5071188;28;20051;-77
2022/05/12 02:21:04;;;;;;;10.07;3.45;;;;;;;9.24;100.00;101629.16;5031094;28;1144333;-85
2022/05/12 02:23:30;;;;;;;10.95;3.80;;;;;;;9.26;100.00;101635.19;5072229;28;20519;-79
2022/05/12 02:25:55;;;;;;;11.10;3.50;;;;;;;9.21;100.00;101636.47;5072244;28;20085;-79
2022/05/12 02:28:21;;;;;;;15.57;4.00;;;;;;;9.16;100.00;101628.84;5072193;28;20031;-79
2022/05/12 02:30:46;;;;;;;14.25;4.00;;;;;;;9.10;100.00;101632.78;5072494;28;20332;-79
2022/05/12 02:33:12;;;;;;;9.60;4.03;;;;;;;9.06;100.00;101646.41;5072322;28;20115;-80
2022/05/12 02:35:39;;;;;;;10.73;3.78;;;;;;;9.03;100.00;101650.09;5072195;28;20024;-80
2022/05/12 02:38:05;;;;;;;8.98;4.05;;;;;;;9.02;100.00;101647.56;5072171;28;20075;-79
2022/05/12 02:40:31;;;;;;;10.55;3.90;;;;;;;8.95;100.00;101652.47;5071946;28;20099;-79
2022/05/12 02:42:57;;;;;;;13.88;4.10;;;;;;;8.92;100.00;101663.31;5072009;28;20037;-79
2022/05/12 02:45:23;;;;;;;12.75;4.00;;;;;;;8.92;100.00;101660.66;5072188;28;20345;-79
2022/05/12 02:47:48;;;;;;;9.07;4.53;;;;;;;8.91;100.00;101661.59;5053528;28;20433;-79
2022/05/12 02:50:15;;;;;;;13.95;4.25;;;;;;;8.87;100.00;101665.41;5072363;28;20067;-80
2022/05/12 02:52:41;;;;;;;12.68;4.20;;;;;;;8.82;100.00;101660.44;5071464;28;20028;-79
2022/05/12 02:55:06;;;;;;;18.30;4.13;;;;;;;8.78;100.00;101661.63;5071363;28;20028;-79
2022/05/12 02:57:33;;;;;;;12.60;3.75;;;;;;;8.75;100.00;101670.66;5053522;28;20345;-79
2022/05/12 02:59:59;;;;;;;13.07;4.07;;;;;;;8.71;100.00;101678.94;5070941;28;20039;-79
2022/05/12 03:02:24;;;;;;;13.25;4.57;;;;;;;8.64;100.00;101673.19;5071558;28;20025;-79
2022/05/12 03:04:49;;;;;;;11.95;4.18;;;;;;;8.58;100.00;101674.47;5071403;28;20137;-79
2022/05/12 03:07:15;;;;;;;13.35;4.47;;;;;;;8.53;100.00;101681.88;5052990;28;20040;-79
2022/05/12 03:09:40;;;;;;;16.48;4.30;;;;;;;8.45;100.00;101684.22;5071315;28;20132;-78
2022/05/12 03:12:06;;;;;;;14.68;4.10;;;;;;;8.35;100.00;101691.91;5071113;28;20104;-78
2022/05/12 03:14:32;;;;;;;14.02;4.38;;;;;;;8.31;100.00;101690.41;5053097;28;20031;-78
2022/05/12 03:16:57;;;;;;;14.27;4.07;;;;;;;8.28;100.00;101698.56;5071356;28;20329;-78
2022/05/12 03:19:23;;;;;;;13.52;4.63;;;;;;;8.29;100.00;101698.47;5071309;28;20114;-79
2022/05/12 03:21:49;;;;;;;16.48;4.63;;;;;;;8.37;100.00;101697.94;5070746;28;20141;-80
2022/05/12 03:24:16;;;;;;;14.88;4.43;;;;;;;8.34;100.00;101706.13;5070968;28;20098;-83
2022/05/12 03:26:42;;;;;;;14.52;3.97;;;;;;;8.31;100.00;101708.97;5052883;28;20036;-79
2022/05/12 03:29:07;;;;;;;10.60;4.05;;;;;;;8.27;100.00;101715.44;5071025;28;20439;-79
2022/05/12 03:31:32;;;;;;;8.98;4.07;;;;;;;8.21;100.00;101714.06;5070591;28;20044;-79
2022/05/12 03:34:00;;;;;;;8.85;3.83;;;;;;;8.18;100.00;101716.91;5070796;28;20032;-78
2022/05/12 03:36:25;;;;;;;12.48;4.53;;;;;;;8.18;100.00;101721.34;5070690;28;20036;-78
2022/05/12 03:38:51;;;;;;;12.98;4.35;;;;;;;8.17;100.00;101720.50;5070903;28;20455;-79
2022/05/12 03:41:16;;;;;;;20.20;4.70;;;;;;;8.12;100.00;101726.13;5070643;28;20320;-84
2022/05/12 03:46:26;;;;;;;13.98;4.90;;;;;;;8.14;100.00;101735.78;5070655;28;20460;-78
2022/05/12 03:48:51;;;;;;;16.90;4.22;;;;;;;8.12;100.00;101739.38;5070825;28;20076;-78
2022/05/12 03:51:17;;;;;;;8.50;3.50;;;;;;;8.11;100.00;101729.72;5052125;28;20025;-84
2022/05/12 03:53:42;;;;;;;10.00;4.00;;;;;;;8.12;100.00;101742.03;5070335;28;20131;-78
2022/05/12 03:56:08;;;;;;;12.68;4.45;;;;;;;8.09;100.00;101736.06;5070499;28;20115;-79
2022/05/12 03:58:35;;;;;;;12.30;4.30;;;;;;;8.09;100.00;101738.72;5070285;28;20384;-79
2022/05/12 04:01:01;;;;;;;10.10;3.97;;;;;;;8.07;100.00;101738.81;5070816;28;20081;-79
2022/05/12 04:03:27;;;;;;;10.48;3.72;;;;;;;8.07;100.00;101743.28;5070424;28;20085;-79
2022/05/12 04:05:54;;;;;;;13.93;4.00;;;;;;;8.03;100.00;101747.94;5071009;28;20029;-79
2022/05/12 04:08:21;;;;;;;11.15;3.92;;;;;;;8.05;100.00;101747.84;5070495;28;20036;-84
2022/05/12 04:10:48;;;;;;;15.00;3.80;;;;;;;8.05;100.00;101758.44;5052568;28;20448;-78
2022/05/12 04:13:14;;;;;;;10.38;3.67;;;;;;;7.99;100.00;101759.69;5052332;28;20055;-79
2022/05/12 04:15:40;;;;;;;10.55;3.90;;;;;;;7.93;100.00;101768.88;5035777;28;20119;-79
2022/05/12 04:18:06;;;;;;;11.95;4.43;;;;;;;7.87;100.00;101758.69;5070671;28;20056;-79
2022/05/12 04:20:33;;;;;;;10.90;3.22;;;;;;;7.87;100.00;101765.78;5069857;28;20025;-78
2022/05/12 04:22:59;;;;;;;12.15;4.18;;;;;;;7.91;100.00;101777.88;5070422;28;20035;-78
2022/05/12 04:25:26;;;;;;;13.85;3.53;;;;;;;7.92;100.00;101776.94;5070657;28;20025;-80
2022/05/12 04:27:52;;;;;;;18.77;4.75;;;;;;;7.93;100.00;101773.34;5070464;28;20033;-80
2022/05/12 04:30:19;;;;;;;14.95;4.30;;;;;;;7.99;100.00;101769.44;5070327;28;20039;-80
2022/05/12 04:32:45;;;;;;;12.63;4.45;;;;;;;8.05;100.00;101775.19;5070325;28;20139;-79
2022/05/12 04:35:14;;;;;;;10.85;3.92;;;;;;;8.15;100.00;101779.88;5052003;28;20116;-80
2022/05/12 04:37:44;;;;;;;11.70;4.45;;;;;;;8.23;100.00;101785.53;5070399;28;20039;-79
2022/05/12 04:40:12;;;;;;;13.85;4.30;;;;;;;8.32;100.00;101786.75;5070220;28;20123;-77
2022/05/12 04:42:38;;;;;;;16.55;4.45;;;;;;;8.35;100.00;101789.19;5070108;28;20046;-80
2022/05/12 04:45:06;;;;;;;9.38;4.40;;;;;;;8.41;100.00;101796.75;5070255;28;20116;-79
2022/05/12 04:47:32;;;;;;;11.88;4.00;;;;;;;8.45;100.00;101793.81;5070095;28;20032;-79
2022/05/12 04:49:58;;;;;;;8.65;3.30;;;;;;;8.49;100.00;101797.09;5070102;28;20048;-79
2022/05/12 04:52:24;;;;;;;8.52;3.45;;;;;;;8.52;100.00;101802.19;5070334;28;20036;-85
2022/05/12 04:54:50;;;;;;;11.45;3.13;;;;;;;8.53;100.00;101805.72;5070352;28;20029;-79
2022/05/12 04:57:15;;;;;;;8.70;3.20;;;;;;;8.55;100.00;101806.44;5070196;28;20039;-79
2022/05/12 04:59:41;;;;;;;13.43;3.83;;;;;;;8.57;100.00;101799.22;5070119;28;20076;-79
2022/05/12 05:02:06;;;;;;;17.05;4.22;;;;;;;8.59;100.00;101800.00;5070075;28;20033;-79
2022/05/12 05:04:31;;;;;;;9.70;3.50;;;;;;;8.63;100.00;101812.13;5069816;28;20063;-80
2022/05/12 05:06:57;;;;;;;10.25;3.53;;;;;;;8.70;100.00;101802.75;5069945;28;20463;-79
2022/05/12 05:09:22;;;;;;;10.98;3.22;;;;;;;8.78;100.00;101813.72;5052144;28;20029;-80
2022/05/12 05:11:48;;;;;;;9.18;3.13;;;;;;;8.82;100.00;101820.53;5070093;28;20081;-78
2022/05/12 05:14:13;;;;;;;7.18;2.90;;;;;;;8.87;100.00;101817.56;5069885;28;20524;-79
2022/05/12 05:16:38;;;;;;;7.43;2.53;;;;;;;8.90;100.00;101832.44;5069550;28;20039;-79
2022/05/12 05:19:04;;;;;;;8.30;2.85;;;;;;;8.95;100.00;101827.66;5069797;28;20028;-78
2022/05/12 05:21:29;;;;;;;7.47;2.80;;;;;;;9.00;100.00;101825.53;5069595;28;20059;-84
2022/05/12 05:23:55;;;;;;;8.77;2.83;;;;;;;9.08;100.00;101833.00;5071829;28;20045;-81
2022/05/12 05:26:20;;;;;;;8.57;3.80;;;;;;;9.13;100.00;101828.19;5073595;28;20070;-78
2022/05/12 05:28:45;;;;;;;9.23;2.92;;;;;;;9.20;100.00;101834.78;5072915;28;20032;-78
2022/05/12 05:31:11;;;;;;;9.68;2.72;;;;;;;9.26;100.00;101828.22;5073540;28;20036;-77
2022/05/12 05:33:36;;;;;;;8.68;2.35;;;;;;;9.33;100.00;101837.44;5073151;28;20040;-78
2022/05/12 05:36:02;;;;;;;8.80;2.85;;;;;;;9.41;100.00;101835.09;5073180;28;20146;-78
2022/05/12 05:38:27;;;;;;;9.30;2.60;;;;;;;9.47;100.00;101840.00;5073195;28;20340;-77
2022/05/12 05:40:53;;;;;;;11.10;2.70;;;;;;;9.52;100.00;101850.28;5054745;28;20089;-75
2022/05/12 05:43:19;;;;;;;13.80;2.63;;;;;;;9.57;99.96;101864.13;5072991;28;20405;-74
2022/05/12 05:45:45;;;;;;;7.75;2.10;;;;;;;9.69;96.84;101862.41;5072864;28;20032;-75
2022/05/12 05:48:10;;;;;;;8.05;2.70;;;;;;;9.79;97.66;101854.63;5072962;28;20114;-74
2022/05/12 05:53:29;;;;;;;8.13;2.47;;;;;;;9.94;97.94;101872.16;5072939;28;20059;-75
2022/05/12 05:55:59;;;;;;;5.35;2.15;;;;;;;10.02;97.20;101877.75;5072718;28;20107;-73
2022/05/12 05:58:26;;;;;;;8.18;2.20;;;;;;;10.15;93.47;101884.84;5072448;28;20499;-76
2022/05/12 06:00:54;;;;;;;9.02;2.30;;;;;;;10.29;94.07;101883.84;5072623;28;20028;-79
2022/05/12 06:03:20;;;;;;;9.07;2.30;;;;;;;10.37;93.78;101900.13;5072517;28;20254;-78
2022/05/12 06:05:45;;;;;;;8.63;2.35;;;;;;;10.48;94.70;101896.66;5054601;28;20135;-79
2022/05/12 06:08:14;;;;;;;4.28;2.13;;;;;;;10.59;93.77;101902.06;5072541;28;20105;-78
2022/05/12 06:10:40;;;;;;;9.73;2.20;;;;;;;10.73;93.08;101915.22;5072302;28;20132;-76
2022/05/12 06:13:06;;;;;;;8.55;2.22;;;;;;;10.85;90.84;101910.78;5072206;28;20028;-79
2022/05/12 06:15:32;;;;;;;11.70;2.10;;;;;;;11.00;92.44;101914.13;5071973;28;20109;-76
2022/05/12 06:17:58;;;;;;;8.18;1.98;;;;;;;11.15;93.10;101916.56;5054109;28;20376;-75
2022/05/12 06:20:23;;;;;;;6.85;2.10;;;;;;;11.28;94.05;101914.66;5072173;28;20149;-77
2022/05/12 06:22:50;;;;;;;5.53;2.05;;;;;;;11.40;90.97;101918.22;5072447;28;20507;-76
2022/05/12 06:25:16;;;;;;;11.63;2.03;;;;;;;11.45;87.81;101934.72;5072060;28;20044;-80
2022/05/12 06:27:42;;;;;;;6.93;1.95;;;;;;;11.59;90.64;101936.31;5072237;28;20127;-76
2022/05/12 06:30:11;;;;;;;8.85;2.30;;;;;;;11.63;85.76;101935.94;5071921;28;20069;-78
2022/05/12 06:32:40;;;;;;;9.98;2.03;;;;;;;11.75;84.60;101946.63;5054139;28;20052;-85
2022/05/12 06:35:08;;;;;;;3.45;1.52;;;;;;;11.87;83.60;101942.13;5070841;28;20120;-78
2022/05/12 06:37:33;;;;;;;8.90;1.95;;;;;;;12.02;86.18;101953.44;5072002;28;20028;-79
2022/05/12 06:39:59;;;;;;;7.07;1.88;;;;;;;12.09;81.27;101952.84;5071649;28;20046;-79
2022/05/12 06:42:24;;;;;;;11.20;1.92;;;;;;;12.24;81.50;101953.44;5071949;28;20116;-79
2022/05/12 06:44:50;;;;;;;7.72;1.77;;;;;;;12.38;85.56;101952.31;5071537;28;20074;-81
2022/05/12 06:47:16;;;;;;;6.13;2.25;;;;;;;12.47;82.07;101954.25;5053540;28;20092;-81
2022/05/12 06:49:43;;;;;;;8.07;2.25;;;;;;;12.54;78.90;101957.28;5071631;28;20032;-78
2022/05/12 06:52:10;;;;;;;10.23;1.90;;;;;;;12.62;78.58;101965.50;5071480;28;20115;-80
2022/05/12 06:54:36;;;;;;;9.35;2.17;;;;;;;12.75;79.87;101962.69;5071435;28;20048;-80
2022/05/12 06:57:03;;;;;;;3.97;1.80;;;;;;;12.86;76.17;101964.47;5071134;28;20460;-79
2022/05/12 06:59:30;;;;;;;8.98;2.17;;;;;;;12.94;74.20;101955.81;5071812;28;20028;-79
2022/05/12 07:01:55;;;;;;;4.35;1.70;;;;;;;13.09;77.37;101965.22;5071571;28;20036;-79
2022/05/12 07:04:21;;;;;;;3.53;1.50;;;;;;;13.22;76.27;101965.88;5072062;28;20024;-79
2022/05/12 07:06:47;;;;;;;5.30;1.90;;;;;;;13.35;76.44;101975.59;5071717;28;20111;-79
2022/05/12 07:09:13;;;;;;;6.00;1.75;;;;;;;13.39;70.70;101980.56;5071724;28;20067;-79
2022/05/12 07:11:39;;;;;;;7.60;1.80;;;;;;;13.46;73.06;101977.34;5071444;28;20432;-80
2022/05/12 07:14:04;;;;;;;4.85;1.60;;;;;;;13.50;68.26;101976.97;5071284;28;20136;-79
2022/05/12 07:16:29;;;;;;;6.63;1.65;;;;;;;13.55;69.17;101982.78;5071844;28;20077;-80
2022/05/12 07:18:55;;;;;;;5.45;1.65;;;;;;;13.62;68.73;101985.75;5071131;28;20604;-80
2022/05/12 07:26:50;;;;;;;6.00;2.17;;;;;;;13.97;68.34;101989.88;5071500;28;20392;-80
2022/05/12 07:29:19;;;;;;;7.93;1.90;;;;;;;14.10;66.36;101990.50;5071499;28;20463;-79
2022/05/12 07:31:44;;;;;;;9.18;1.60;;;;;;;14.11;65.02;101994.06;5070721;28;20036;-79
2022/05/12 07:34:10;;;;;;;3.13;1.90;;;;;;;14.14;65.01;102000.94;5070934;28;20116;-78
2022/05/12 07:36:43;;;;;;;5.20;1.52;;;;;;;14.25;63.90;102007.06;5070666;28;20457;-78
2022/05/12 07:39:12;;;;;;;4.68;1.60;;;;;;;14.38;63.68;102011.34;5070904;28;20025;-78
2022/05/12 07:41:41;;;;;;;4.82;1.70;;;;;;;14.42;61.88;102010.94;5071412;28;20131;-78
2022/05/12 07:44:07;;;;;;;4.47;1.70;;;;;;;14.49;62.67;102005.03;5070678;28;20051;-78
2022/05/12 07:46:33;;;;;;;5.70;1.75;;;;;;;14.52;60.05;102004.75;5052508;28;20039;-77
2022/05/12 07:48:58;;;;;;;6.22;1.60;;;;;;;14.47;59.96;102010.53;5070812;28;20036;-79
2022/05/12 07:51:24;;;;;;;3.85;1.42;;;;;;;14.65;60.28;102015.28;5052287;28;20139;-78
2022/05/12 07:53:51;;;;;;;8.95;1.60;;;;;;;14.76;60.23;102016.00;5052641;28;20036;-77
2022/05/12 07:56:20;;;;;;;5.32;1.27;;;;;;;14.93;61.92;102013.63;5070397;28;20035;-77
2022/05/12 07:58:46;;;;;;;7.72;1.50;;;;;;;15.18;58.68;102014.91;5070136;28;20024;-76
2022/05/12 08:01:13;;;;;;;8.02;1.65;;;;;;;15.26;59.05;102022.25;5070328;28;20032;-76
2022/05/12 08:03:39;;;;;;;4.03;1.50;;;;;;;15.30;60.22;102018.28;5070593;28;20044;-76
2022/05/12 08:06:05;;;;;;;4.55;1.60;;;;;;;15.50;58.35;102016.44;5070025;28;20033;-78
2022/05/12 08:08:31;;;;;;;9.25;1.73;;;;;;;15.67;57.19;102020.22;5070244;28;20098;-77
2022/05/12 08:10:57;;;;;;;5.20;1.50;;;;;;;15.79;55.92;102016.41;5070038;28;20037;-76
2022/05/12 08:13:23;;;;;;;5.03;1.58;;;;;;;15.97;54.78;102016.53;5069624;28;20032;-76
2022/05/12 08:15:50;;;;;;;6.38;1.48;;;;;;;15.93;52.85;102014.25;5051795;28;20048;-75
2022/05/12 08:18:17;;;;;;;8.07;1.63;;;;;;;16.13;55.30;102015.91;5069983;28;20416;-77
2022/05/12 08:20:44;;;;;;;6.22;1.58;;;;;;;16.44;54.70;102017.47;5070011;28;20039;-75
2022/05/12 08:23:10;;;;;;;4.68;1.23;;;;;;;16.70;52.02;102017.59;5069636;28;20025;-74
2022/05/12 08:25:36;;;;;;;5.00;1.52;;;;;;;16.86;51.13;102019.63;5069879;28;20035;-76
2022/05/12 08:28:01;;;;;;;4.55;1.38;;;;;;;16.99;52.19;102013.91;5069199;28;20361;-74
2022/05/12 08:30:27;;;;;;;2.92;1.40;;;;;;;17.34;50.31;102018.44;5069541;28;20360;-76
2022/05/12 08:32:52;;;;;;;5.85;1.38;;;;;;;17.52;48.44;102010.34;5069517;28;20141;-76
2022/05/12 08:35:18;;;;;;;5.93;1.52;;;;;;;17.83;49.43;102017.97;5069086;28;20048;-78
2022/05/12 08:37:43;;;;;;;6.72;1.50;;;;;;;18.45;47.58;102035.81;5069364;28;20039;-75
2022/05/12 08:40:18;;;;;;;5.85;1.30;;;;;;;18.98;42.93;102037.34;5068966;28;20124;-76
2022/05/12 08:42:46;;;;;;;5.03;1.33;;;;;;;19.16;42.71;102034.53;5034944;28;20116;-76
2022/05/12 08:45:14;;;;;;;5.50;1.30;;;;;;;19.24;42.26;102030.16;5069573;28;20040;-76
2022/05/12 08:47:43;;;;;;;2.90;1.33;;;;;;;19.42;40.72;102036.22;5069621;28;20111;-77
2022/05/12 08:50:18;;;;;;;6.53;1.20;;;;;;;19.38;40.47;102034.88;5069371;28;20142;-76
2022/05/12 08:52:49;;;;;;;2.85;1.10;;;;;;;19.64;40.49;102036.56;5070008;28;20447;-76
2022/05/12 08:55:39;;;;;;;5.95;1.20;;;;;;;20.10;40.72;102039.53;5069600;28;20084;-77
2022/05/12 08:58:16;;;;;;;7.30;1.52;;;;;;;20.51;37.36;102033.16;5070102;28;20060;-77
2022/05/12 09:00:53;;;;;;;3.53;1.38;;;;;;;20.65;39.46;102026.16;5055183;28;20069;-76
2022/05/12 09:03:49;;;;;;;3.72;1.20;;;;;;;20.65;36.73;102034.28;5073200;28;20060;-77
2022/05/12 09:06:49;;;;;;;3.13;1.20;;;;;;;21.38;36.18;102032.09;5073640;28;20137;-77
2022/05/12 09:09:31;;;;;;;3.28;1.20;;;;;;;22.62;34.03;102037.13;5054901;28;20309;-75
2022/05/12 09:11:59;;;;;;;7.20;1.60;;;;;;;23.01;34.42;102030.44;5073282;28;20044;-75
2022/05/12 09:14:43;;;;;;;6.03;1.55;;;;;;;23.83;31.91;102022.81;5073081;28;20029;-75
2022/05/12 09:17:18;;;;;;;6.85;1.75;;;;;;;24.16;33.51;102033.09;5073184;28;20036;-69
2022/05/12 09:19:43;;;;;;;4.95;1.45;;;;;;;24.80;30.51;102029.19;5072703;28;20040;-69
2022/05/12 09:22:09;;;;;;;6.05;1.60;;;;;;;23.95;30.18;102029.41;5072428;28;20452;-70
2022/05/12 09:24:35;;;;;;;6.20;1.58;;;;;;;24.66;29.54;102025.56;5072984;28;20052;-71
2022/05/12 09:27:13;;;;;;;5.20;1.35;;;;;;;23.53;30.68;102025.75;5072594;28;20112;-79
2022/05/12 09:29:47;;;;;;;5.30;1.55;;;;;;;23.27;30.52;102031.78;5073244;28;20060;-74
2022/05/12 09:32:13;;;;;;;2.58;1.50;;;;;;;23.52;31.43;102024.88;5074978;28;20504;-79
2022/05/12 09:34:42;;;;;;;3.50;1.42;;;;;;;23.78;30.35;102031.53;5075892;28;20024;-79
2022/05/12 09:37:15;;;;;;;5.28;1.40;;;;;;;23.14;30.74;102036.06;5074474;28;20040;-80
2022/05/12 09:39:42;;;;;;;6.47;1.50;;;;;;;22.66;32.63;102028.41;5074965;28;20114;-80
2022/05/12 09:42:27;;;;;;;3.75;1.50;;;;;;;23.07;32.77;102037.81;5075640;28;20044;-80
2022/05/12 09:44:59;;;;;;;4.70;1.40;;;;;;;23.84;30.87;102038.06;5076171;28;20081;-80
2022/05/12 09:47:27;;;;;;;6.57;1.67;;;;;;;23.89;31.08;102046.50;5076930;28;20168;-81
2022/05/12 09:50:16;;;;;;;3.30;1.27;;;;;;;24.49;29.86;102037.84;5078583;28;20100;-82
2022/05/12 09:52:59;;;;;;;5.47;1.60;;;;;;;24.98;29.29;102034.88;5057832;28;20028;-80
2022/05/12 09:55:39;;;;;;;6.15;1.83;;;;;;;23.81;33.05;102038.47;5076355;28;20024;-80
2022/05/12 09:58:04;;;;;;;4.72;1.50;;;;;;;22.87;33.36;102037.59;5075418;28;20063;-81
2022/05/12 10:00:30;;;;;;;4.30;1.55;;;;;;;22.14;34.09;102037.50;5076970;28;20047;-80
2022/05/12 10:09:08;;;;;;;5.88;1.92;;;;;;;23.11;32.66;102044.59;5072450;28;20169;-79
2022/05/12 10:12:15;;;;;;;5.03;1.27;;;;;;;23.72;30.13;102052.22;5072144;28;20051;-79
2022/05/12 10:15:03;;;;;;;5.38;1.38;;;;;;;24.03;30.22;102048.25;5072368;28;20066;-79
2022/05/12 10:17:43;;;;;;;6.85;1.70;;;;;;;23.90;30.82;102048.16;5071802;28;20151;-78
2022/05/12 10:20:15;;;;;;;2.80;1.08;;;;;;;24.28;32.23;102026.88;5053681;28;20103;-81
2022/05/12 10:22:43;;;;;;;4.15;1.35;;;;;;;24.20;29.48;102048.78;5071683;28;20131;-78
2022/05/12 10:25:47;;;;;;;3.60;1.40;;;;;;;23.79;28.91;102035.94;5071654;28;20133;-81
2022/05/12 10:28:26;;;;;;;12.43;1.65;;;;;;;22.78;31.26;102036.91;5071633;28;20024;-77
2022/05/12 10:31:18;;;;;;;5.03;1.83;;;;;;;22.32;31.64;102038.00;5053590;28;20368;-79
2022/05/12 10:33:55;;;;;;;3.38;1.42;;;;;;;23.00;31.91;102032.31;5053344;28;20052;-78
2022/05/12 10:36:33;;;;;;;8.20;1.58;;;;;;;24.02;29.97;102040.31;5071904;28;20039;-79
2022/05/12 10:39:01;;;;;;;4.20;1.30;;;;;;;22.53;30.47;102041.81;5071757;28;20401;-79
2022/05/12 10:41:36;;;;;;;7.35;1.38;;;;;;;22.30;31.02;102034.59;5071429;28;20044;-78
2022/05/12 10:44:30;;;;;;;4.93;1.20;;;;;;;20.85;34.19;102032.00;5071365;28;20158;-77
2022/05/12 10:47:06;;;;;;;3.60;1.25;;;;;;;20.34;38.10;102027.81;5071366;28;20036;-77
2022/05/12 10:49:45;;;;;;;3.40;1.30;;;;;;;21.31;33.19;102030.13;5071060;28;20112;-77
2022/05/12 10:52:20;;;;;;;4.95;1.40;;;;;;;21.60;31.75;102030.44;5070898;28;20421;-77
2022/05/12 10:55:11;;;;;;;4.40;1.15;;;;;;;21.52;31.70;102030.50;5071068;28;20381;-81
2022/05/12 10:57:45;;;;;;;3.72;1.27;;;;;;;22.26;31.21;102027.00;5071529;28;20032;-77
2022/05/12 11:00:36;;;;;;;5.78;1.38;;;;;;;23.06;29.09;102028.84;5070832;28;20244;-79
2022/05/12 11:03:13;;;;;;;4.65;1.38;;;;;;;22.88;29.15;102026.53;5070658;28;20028;-77
2022/05/12 11:05:45;;;;;;;36.70;3.33;;;;;;;22.21;31.79;102024.88;5070652;28;20047;-76
2022/05/12 11:08:42;;;;;;;3.28;1.20;;;;;;;22.05;31.33;102022.34;5070457;28;20148;-78
2022/05/12 11:11:31;;;;;;;4.65;1.23;;;;;;;21.48;30.74;102030.84;5069463;28;20056;-77
2022/05/12 11:14:35;;;;;;;9.30;1.40;;;;;;;21.18;32.34;102026.34;5070402;28;20132;-77
2022/05/12 11:17:12;;;;;;;2.20;1.00;;;;;;;21.32;31.12;102014.75;5069735;28;20112;-77
2022/05/12 11:19:43;;;;;;;4.15;1.10;;;;;;;21.95;30.52;102009.94;5070365;28;20111;-77
2022/05/12 11:22:40;;;;;;;3.20;1.23;;;;;;;22.47;29.93;102032.56;5069758;28;20051;-77
2022/05/12 11:25:38;;;;;;;3.22;1.10;;;;;;;22.84;29.08;102028.00;5070091;28;20040;-76
2022/05/12 11:31:21;;;;;;;;;;;;;;;23.02;28.70;102026.69;5070875;28;20052;-78
2022/05/12 11:33:53;;;;;;;5.18;1.13;;;;;;;23.07;29.60;102024.25;5069968;28;19916;-79
2022/05/12 11:36:19;;;;;;;4.50;1.08;;;;;;;22.68;27.94;102041.78;5070358;28;20389;-78
2022/05/12 11:38:48;;;;;;;4.28;1.40;;;;;;;23.07;27.77;102030.50;5070435;28;20071;-79
2022/05/12 11:41:19;;;;;;;2.28;1.15;;;;;;;23.30;27.19;102029.50;5070057;28;20032;-78
2022/05/12 11:47:07;;;;;;;3.90;1.42;;;;;;;23.52;26.48;102034.91;5070119;28;20258;-81
2022/05/12 11:50:15;;;;;;;3.63;1.35;;;;;;;22.72;28.01;102043.06;5069933;28;20040;-78
2022/05/12 11:53:12;;;;;;;6.25;1.25;;;;;;;22.97;27.92;102040.00;5069950;28;20110;-80
2022/05/12 11:56:07;;;;;;;5.80;1.23;;;;;;;23.51;28.66;102033.22;5052034;28;20437;-78